Time,TemperatureF,DewpointF,PressureIn,WindDirection,WindDirectionDegrees,WindSpeedMPH,WindSpeedGustMPH,Humidity,HourlyPrecipIn,Conditions,Clouds,dailyrainin,SoftwareType,DateUTC
2013-05-06 00:00:00,68.4,53.1,29.82,NE,47,1.0,4.0,58,0.00,,---,0.00,VWS V14.01,2013-05-06 07:00:00,
2013-05-06 00:05:00,68.1,52.3,29.82,NE,46,2.0,5.0,57,0.00,,---,0.00,VWS V14.01,2013-05-06 07:05:00,
2013-05-06 00:10:00,67.9,52.6,29.82,NE,46,2.0,5.0,58,0.00,,---,0.00,VWS V14.01,2013-05-06 07:10:00,
2013-05-06 00:15:00,67.7,51.9,29.82,NE,46,2.0,5.0,57,0.00,,---,0.00,VWS V14.01,2013-05-06 07:15:00,
2013-05-06 00:20:00,67.4,52.6,29.82,ENE,62,2.0,3.0,59,0.00,,---,0.00,VWS V14.01,2013-05-06 07:20:00,
2013-05-06 00:25:00,67.2,52.4,29.82,ENE,62,0.0,3.0,59,0.00,,---,0.00,VWS V14.01,2013-05-06 07:25:00,
2013-05-06 00:30:00,67.1,51.8,29.82,ENE,62,1.0,3.0,58,0.00,,---,0.00,VWS V14.01,2013-05-06 07:30:00,
2013-05-06 00:35:00,67.0,51.3,29.82,ENE,62,1.0,3.0,57,0.00,,---,0.00,VWS V14.01,2013-05-06 07:35:00,
2013-05-06 00:40:00,66.8,51.6,29.83,ENE,62,1.0,3.0,58,0.00,,---,0.00,VWS V14.01,2013-05-06 07:40:00,
2013-05-06 00:45:00,66.5,51.8,29.83,ENE,62,0.0,3.0,59,0.00,,---,0.00,VWS V14.01,2013-05-06 07:45:00,
2013-05-06 00:50:00,66.3,52.0,29.83,ENE,62,0.0,1.0,60,0.00,,---,0.00,VWS V14.01,2013-05-06 07:50:00,
2013-05-06 00:55:00,66.1,51.4,29.83,ENE,62,1.0,1.0,59,0.00,,---,0.00,VWS V14.01,2013-05-06 07:55:00,
2013-05-06 01:00:00,65.9,51.6,29.83,ENE,62,0.0,1.0,60,0.00,,---,0.00,VWS V14.01,2013-05-06 08:00:00,
2013-05-06 01:05:00,65.8,51.5,29.83,ENE,62,1.0,2.0,60,0.00,,---,0.00,VWS V14.01,2013-05-06 08:05:00,
2013-05-06 01:10:00,65.7,51.9,29.83,ENE,65,0.0,2.0,61,0.00,,---,0.00,VWS V14.01,2013-05-06 08:10:00,
2013-05-06 01:15:00,65.5,51.7,29.83,ENE,65,0.0,2.0,61,0.00,,---,0.00,VWS V14.01,2013-05-06 08:15:00,
2013-05-06 01:20:00,65.2,51.9,29.83,ENE,65,0.0,1.0,62,0.00,,---,0.00,VWS V14.01,2013-05-06 08:20:00,
2013-05-06 01:25:00,65.0,51.7,29.83,ENE,65,0.0,1.0,62,0.00,,---,0.00,VWS V14.01,2013-05-06 08:25:00,
2013-05-06 01:30:00,65.0,51.2,29.83,ENE,65,0.0,2.0,61,0.00,,---,0.00,VWS V14.01,2013-05-06 08:30:00,
2013-05-06 01:35:00,65.1,51.3,29.83,ENE,65,1.0,1.0,61,0.00,,---,0.00,VWS V14.01,2013-05-06 08:35:00,
2013-05-06 01:40:00,65.0,49.9,29.83,ENE,65,0.0,2.0,58,0.00,,---,0.00,VWS V14.01,2013-05-06 08:40:00,
2013-05-06 01:45:00,65.0,50.8,29.83,ENE,65,1.0,2.0,60,0.00,,---,0.00,VWS V14.01,2013-05-06 08:45:00,
2013-05-06 01:50:00,64.9,51.2,29.83,ENE,65,1.0,1.0,61,0.00,,---,0.00,VWS V14.01,2013-05-06 08:50:00,
2013-05-06 01:55:00,64.7,50.5,29.83,ENE,65,0.0,2.0,60,0.00,,---,0.00,VWS V14.01,2013-05-06 08:55:00,
2013-05-06 02:00:00,64.4,50.7,29.83,ENE,65,0.0,2.0,61,0.00,,---,0.00,VWS V14.01,2013-05-06 09:00:00,
2013-05-06 02:05:00,64.1,50.8,29.82,ENE,63,1.0,3.0,62,0.00,,---,0.00,VWS V14.01,2013-05-06 09:05:00,
2013-05-06 02:10:00,63.9,51.1,29.83,ENE,63,0.0,3.0,63,0.00,,---,0.00,VWS V14.01,2013-05-06 09:10:00,
2013-05-06 02:15:00,63.7,50.5,29.83,ENE,61,2.0,3.0,62,0.00,,---,0.00,VWS V14.01,2013-05-06 09:15:00,
2013-05-06 02:20:00,63.6,49.9,29.82,ENE,61,0.0,3.0,61,0.00,,---,0.00,VWS V14.01,2013-05-06 09:20:00,
2013-05-06 02:25:00,63.6,49.9,29.82,ENE,61,1.0,4.0,61,0.00,,---,0.00,VWS V14.01,2013-05-06 09:25:00,
2013-05-06 02:30:00,63.5,49.8,29.82,ENE,61,1.0,4.0,61,0.00,,---,0.00,VWS V14.01,2013-05-06 09:30:00,
2013-05-06 02:35:00,63.3,50.5,29.82,ENE,61,0.0,1.0,63,0.00,,---,0.00,VWS V14.01,2013-05-06 09:35:00,
2013-05-06 02:40:00,63.1,50.3,29.82,ENE,61,0.0,1.0,63,0.00,,---,0.00,VWS V14.01,2013-05-06 09:40:00,
2013-05-06 02:45:00,62.8,49.6,29.82,ENE,61,1.0,2.0,62,0.00,,---,0.00,VWS V14.01,2013-05-06 09:45:00,
2013-05-06 02:50:00,62.5,49.8,29.82,East,84,2.0,3.0,63,0.00,,---,0.00,VWS V14.01,2013-05-06 09:50:00,
2013-05-06 02:55:00,62.2,49.5,29.82,East,84,0.0,3.0,63,0.00,,---,0.00,VWS V14.01,2013-05-06 09:55:00,
2013-05-06 03:00:00,62.1,49.4,29.82,East,84,0.0,3.0,63,0.00,,---,0.00,VWS V14.01,2013-05-06 10:00:00,
2013-05-06 03:05:00,62.0,49.3,29.82,East,83,2.0,3.0,63,0.00,,---,0.00,VWS V14.01,2013-05-06 10:05:00,
2013-05-06 03:10:00,61.8,48.2,29.82,East,83,1.0,3.0,61,0.00,,---,0.00,VWS V14.01,2013-05-06 10:10:00,
2013-05-06 03:15:00,61.7,48.6,29.82,East,83,0.0,3.0,62,0.00,,---,0.00,VWS V14.01,2013-05-06 10:15:00,
2013-05-06 03:20:00,61.4,48.3,29.82,East,83,1.0,2.0,62,0.00,,---,0.00,VWS V14.01,2013-05-06 10:20:00,
2013-05-06 03:25:00,61.2,48.5,29.82,East,84,2.0,3.0,63,0.00,,---,0.00,VWS V14.01,2013-05-06 10:25:00,
2013-05-06 03:30:00,61.1,48.0,29.82,East,90,0.0,4.0,62,0.00,,---,0.00,VWS V14.01,2013-05-06 10:30:00,
2013-05-06 03:35:00,61.1,47.6,29.82,East,89,0.0,4.0,61,0.00,,---,0.00,VWS V14.01,2013-05-06 10:35:00,
2013-05-06 03:40:00,61.0,47.0,29.82,East,90,0.0,4.0,60,0.00,,---,0.00,VWS V14.01,2013-05-06 10:40:00,
2013-05-06 03:45:00,60.9,46.5,29.82,East,90,0.0,4.0,59,0.00,,---,0.00,VWS V14.01,2013-05-06 10:45:00,
2013-05-06 03:50:00,60.8,46.8,29.82,East,90,0.0,1.0,60,0.00,,---,0.00,VWS V14.01,2013-05-06 10:50:00,
2013-05-06 03:55:00,60.7,46.3,29.82,East,90,0.0,2.0,59,0.00,,---,0.00,VWS V14.01,2013-05-06 10:55:00,
2013-05-06 04:00:00,60.5,46.1,29.82,East,90,0.0,2.0,59,0.00,,---,0.00,VWS V14.01,2013-05-06 11:00:00,
2013-05-06 04:05:00,60.4,46.5,29.83,East,90,1.0,1.0,60,0.00,,---,0.00,VWS V14.01,2013-05-06 11:05:00,
2013-05-06 04:10:00,60.3,46.4,29.83,East,90,0.0,1.0,60,0.00,,---,0.00,VWS V14.01,2013-05-06 11:10:00,
2013-05-06 04:15:00,60.3,45.0,29.83,East,90,1.0,5.0,57,0.00,,---,0.00,VWS V14.01,2013-05-06 11:15:00,
2013-05-06 04:20:00,60.7,44.5,29.83,East,90,2.0,4.0,55,0.00,,---,0.00,VWS V14.01,2013-05-06 11:20:00,
2013-05-06 04:25:00,61.2,45.4,29.83,East,96,4.0,5.0,56,0.00,,---,0.00,VWS V14.01,2013-05-06 11:25:00,
2013-05-06 04:30:00,61.3,45.5,29.83,East,96,0.0,5.0,56,0.00,,---,0.00,VWS V14.01,2013-05-06 11:30:00,
2013-05-06 04:35:00,61.1,45.8,29.83,East,96,1.0,1.0,57,0.00,,---,0.00,VWS V14.01,2013-05-06 11:35:00,
2013-05-06 04:40:00,60.8,46.4,29.83,East,96,0.0,2.0,59,0.00,,---,0.00,VWS V14.01,2013-05-06 11:40:00,
2013-05-06 04:45:00,60.5,45.7,29.83,East,96,0.0,2.0,58,0.00,,---,0.00,VWS V14.01,2013-05-06 11:45:00,
2013-05-06 04:50:00,60.2,45.8,29.83,East,96,1.0,4.0,59,0.00,,---,0.00,VWS V14.01,2013-05-06 11:50:00,
2013-05-06 04:55:00,59.7,45.8,29.83,East,96,2.0,4.0,60,0.00,,---,0.00,VWS V14.01,2013-05-06 11:55:00,
2013-05-06 05:00:00,59.4,46.0,29.83,East,96,0.0,4.0,61,0.00,,---,0.00,VWS V14.01,2013-05-06 12:00:00,
2013-05-06 05:05:00,59.2,46.2,29.83,East,96,0.0,1.0,62,0.00,,---,0.00,VWS V14.01,2013-05-06 12:05:00,
2013-05-06 05:10:00,59.1,47.0,29.84,East,96,1.0,1.0,64,0.00,,---,0.00,VWS V14.01,2013-05-06 12:10:00,
2013-05-06 05:15:00,58.9,46.8,29.84,East,96,1.0,1.0,64,0.00,,---,0.00,VWS V14.01,2013-05-06 12:15:00,
2013-05-06 05:20:00,58.7,47.0,29.84,East,96,0.0,1.0,65,0.00,,---,0.00,VWS V14.01,2013-05-06 12:20:00,
2013-05-06 05:25:00,58.6,46.9,29.84,East,96,0.0,1.0,65,0.00,,---,0.00,VWS V14.01,2013-05-06 12:25:00,
2013-05-06 05:30:00,58.5,47.2,29.84,East,96,0.0,2.0,66,0.00,,---,0.00,VWS V14.01,2013-05-06 12:30:00,
2013-05-06 05:35:00,58.4,47.1,29.84,East,96,0.0,1.0,66,0.00,,---,0.00,VWS V14.01,2013-05-06 12:35:00,
2013-05-06 05:40:00,58.4,46.7,29.84,East,96,0.0,1.0,65,0.00,,---,0.00,VWS V14.01,2013-05-06 12:40:00,
2013-05-06 05:45:00,58.5,46.4,29.84,East,96,2.0,4.0,64,0.00,,---,0.00,VWS V14.01,2013-05-06 12:45:00,
2013-05-06 05:50:00,58.5,46.8,29.84,East,96,0.0,2.0,65,0.00,,---,0.00,VWS V14.01,2013-05-06 12:50:00,
2013-05-06 05:55:00,58.4,47.5,29.84,East,96,1.0,2.0,67,0.00,,---,0.00,VWS V14.01,2013-05-06 12:55:00,
2013-05-06 06:00:00,58.4,47.5,29.84,East,96,1.0,2.0,67,0.00,,---,0.00,VWS V14.01,2013-05-06 13:00:00,
2013-05-06 06:05:00,58.3,47.4,29.84,East,96,0.0,1.0,67,0.00,,---,0.00,VWS V14.01,2013-05-06 13:05:00,
2013-05-06 06:10:00,58.2,47.3,29.84,East,96,0.0,4.0,67,0.00,,---,0.00,VWS V14.01,2013-05-06 13:10:00,
2013-05-06 06:15:00,58.3,48.2,29.84,East,96,0.0,4.0,69,0.00,,---,0.00,VWS V14.01,2013-05-06 13:15:00,
2013-05-06 06:20:00,58.6,47.7,29.85,East,96,2.0,2.0,67,0.00,,---,0.00,VWS V14.01,2013-05-06 13:20:00,
2013-05-06 06:25:00,58.7,47.8,29.85,East,96,0.0,4.0,67,0.00,,---,0.00,VWS V14.01,2013-05-06 13:25:00,
2013-05-06 06:30:00,58.9,47.2,29.85,East,96,2.0,4.0,65,0.00,,---,0.00,VWS V14.01,2013-05-06 13:30:00,
2013-05-06 06:35:00,59.1,47.4,29.85,East,96,2.0,4.0,65,0.00,,---,0.00,VWS V14.01,2013-05-06 13:35:00,
2013-05-06 06:40:00,59.1,47.4,29.85,East,96,0.0,4.0,65,0.00,,---,0.00,VWS V14.01,2013-05-06 13:40:00,
2013-05-06 06:45:00,59.1,47.8,29.85,East,96,0.0,4.0,66,0.00,,---,0.00,VWS V14.01,2013-05-06 13:45:00,
2013-05-06 06:50:00,59.4,48.0,29.85,East,96,0.0,1.0,66,0.00,,---,0.00,VWS V14.01,2013-05-06 13:50:00,
2013-05-06 06:55:00,59.7,48.3,29.85,East,96,0.0,2.0,66,0.00,,---,0.00,VWS V14.01,2013-05-06 13:55:00,
2013-05-06 07:00:00,59.6,47.4,29.85,East,94,4.0,5.0,64,0.00,,---,0.00,VWS V14.01,2013-05-06 14:00:00,
2013-05-06 07:05:00,59.5,47.3,29.85,East,93,2.0,4.0,64,0.00,,---,0.00,VWS V14.01,2013-05-06 14:05:00,
2013-05-06 07:10:00,59.4,47.7,29.85,East,93,1.0,4.0,65,0.00,,---,0.00,VWS V14.01,2013-05-06 14:10:00,
2013-05-06 07:15:00,59.5,48.2,29.85,East,89,2.0,4.0,66,0.00,,---,0.00,VWS V14.01,2013-05-06 14:15:00,
2013-05-06 07:20:00,59.7,48.7,29.85,East,88,1.0,4.0,67,0.00,,---,0.00,VWS V14.01,2013-05-06 14:20:00,
2013-05-06 07:25:00,59.9,48.1,29.85,East,88,3.0,4.0,65,0.00,,---,0.00,VWS V14.01,2013-05-06 14:25:00,
2013-05-06 07:30:00,60.2,48.4,29.85,East,88,2.0,4.0,65,0.00,,---,0.00,VWS V14.01,2013-05-06 14:30:00,
2013-05-06 07:35:00,60.4,48.6,29.85,East,88,0.0,3.0,65,0.00,,---,0.00,VWS V14.01,2013-05-06 14:35:00,
2013-05-06 07:40:00,60.5,48.3,29.86,East,88,2.0,3.0,64,0.00,,---,0.00,VWS V14.01,2013-05-06 14:40:00,
2013-05-06 07:45:00,60.6,48.8,29.86,East,87,0.0,3.0,65,0.00,,---,0.00,VWS V14.01,2013-05-06 14:45:00,
2013-05-06 07:50:00,60.7,48.9,29.86,East,88,1.0,4.0,65,0.00,,---,0.00,VWS V14.01,2013-05-06 14:50:00,
2013-05-06 07:55:00,60.5,49.1,29.86,East,79,2.0,4.0,66,0.00,,---,0.00,VWS V14.01,2013-05-06 14:55:00,
2013-05-06 08:00:00,60.4,49.0,29.86,NE,54,1.0,4.0,66,0.00,,---,0.00,VWS V14.01,2013-05-06 15:00:00,
2013-05-06 08:05:00,60.3,49.3,29.86,NNE,28,2.0,3.0,67,0.00,,---,0.00,VWS V14.01,2013-05-06 15:05:00,
2013-05-06 08:10:00,60.3,48.9,29.86,North,355,2.0,4.0,66,0.00,,---,0.00,VWS V14.01,2013-05-06 15:10:00,
2013-05-06 08:15:00,60.5,49.1,29.86,North,355,3.0,4.0,66,0.00,,---,0.00,VWS V14.01,2013-05-06 15:15:00,
2013-05-06 08:20:00,60.7,49.3,29.86,North,355,1.0,2.0,66,0.00,,---,0.00,VWS V14.01,2013-05-06 15:20:00,
2013-05-06 08:25:00,60.8,48.6,29.86,North,355,2.0,3.0,64,0.00,,---,0.00,VWS V14.01,2013-05-06 15:25:00,
2013-05-06 08:30:00,60.9,49.1,29.86,North,360,2.0,3.0,65,0.00,,---,0.00,VWS V14.01,2013-05-06 15:30:00,
2013-05-06 08:35:00,61.2,48.9,29.86,North,360,2.0,3.0,64,0.00,,---,0.00,VWS V14.01,2013-05-06 15:35:00,
2013-05-06 08:40:00,61.6,48.9,29.86,North,360,1.0,3.0,63,0.00,,---,0.00,VWS V14.01,2013-05-06 15:40:00,
2013-05-06 08:45:00,62.1,49.4,29.86,North,360,1.0,3.0,63,0.00,,---,0.00,VWS V14.01,2013-05-06 15:45:00,
2013-05-06 08:50:00,62.4,49.2,29.86,North,360,2.0,2.0,62,0.00,,---,0.00,VWS V14.01,2013-05-06 15:50:00,
2013-05-06 08:55:00,62.9,49.7,29.86,North,360,1.0,3.0,62,0.00,,---,0.00,VWS V14.01,2013-05-06 15:55:00,
2013-05-06 09:00:00,63.8,49.7,29.86,North,360,3.0,4.0,60,0.00,,---,0.00,VWS V14.01,2013-05-06 16:00:00,
2013-05-06 09:05:00,64.1,50.0,29.86,North,360,0.0,2.0,60,0.00,,---,0.00,VWS V14.01,2013-05-06 16:05:00,
2013-05-06 09:10:00,64.4,49.8,29.86,NW,325,4.0,4.0,59,0.00,,---,0.00,VWS V14.01,2013-05-06 16:10:00,
2013-05-06 09:15:00,63.9,49.8,29.86,WSW,255,4.0,6.0,60,0.00,,---,0.00,VWS V14.01,2013-05-06 16:15:00,
2013-05-06 09:20:00,63.3,49.2,29.86,WSW,257,5.0,5.0,60,0.00,,---,0.00,VWS V14.01,2013-05-06 16:20:00,
2013-05-06 09:25:00,62.7,49.1,29.86,West,260,3.0,5.0,61,0.00,,---,0.00,VWS V14.01,2013-05-06 16:25:00,
2013-05-06 09:30:00,62.6,49.4,29.86,West,260,1.0,5.0,62,0.00,,---,0.00,VWS V14.01,2013-05-06 16:30:00,
2013-05-06 09:35:00,63.4,49.7,29.86,West,260,1.0,3.0,61,0.00,,---,0.00,VWS V14.01,2013-05-06 16:35:00,
2013-05-06 09:40:00,64.0,49.4,29.86,West,260,2.0,3.0,59,0.00,,---,0.00,VWS V14.01,2013-05-06 16:40:00,
2013-05-06 09:45:00,64.9,49.8,29.86,West,260,1.0,3.0,58,0.00,,---,0.00,VWS V14.01,2013-05-06 16:45:00,
2013-05-06 09:50:00,65.6,50.0,29.86,West,260,2.0,3.0,57,0.00,,---,0.00,VWS V14.01,2013-05-06 16:50:00,
2013-05-06 09:55:00,66.1,50.0,29.86,West,260,3.0,4.0,56,0.00,,---,0.00,VWS V14.01,2013-05-06 16:55:00,
2013-05-06 10:00:00,65.5,48.4,29.86,West,263,3.0,5.0,54,0.00,,---,0.00,VWS V14.01,2013-05-06 17:00:00,
2013-05-06 10:05:00,64.7,48.2,29.86,West,279,6.0,6.0,55,0.00,,---,0.00,VWS V14.01,2013-05-06 17:05:00,
2013-05-06 10:10:00,64.2,48.2,29.86,West,260,2.0,6.0,56,0.00,,---,0.00,VWS V14.01,2013-05-06 17:10:00,
2013-05-06 10:15:00,64.8,48.3,29.86,West,261,3.0,6.0,55,0.00,,---,0.00,VWS V14.01,2013-05-06 17:15:00,
2013-05-06 10:20:00,64.8,47.8,29.86,West,261,3.0,5.0,54,0.00,,---,0.00,VWS V14.01,2013-05-06 17:20:00,
2013-05-06 10:25:00,64.8,47.8,29.86,West,261,2.0,5.0,54,0.00,,---,0.00,VWS V14.01,2013-05-06 17:25:00,
2013-05-06 10:30:00,65.0,47.5,29.86,West,261,1.0,5.0,53,0.00,,---,0.00,VWS V14.01,2013-05-06 17:30:00,
2013-05-06 10:35:00,65.5,47.9,29.86,West,261,2.0,3.0,53,0.00,,---,0.00,VWS V14.01,2013-05-06 17:35:00,
2013-05-06 10:40:00,66.3,48.2,29.86,West,261,1.0,3.0,52,0.00,,---,0.00,VWS V14.01,2013-05-06 17:40:00,
2013-05-06 10:45:00,67.1,48.4,29.86,West,262,3.0,5.0,51,0.00,,---,0.00,VWS V14.01,2013-05-06 17:45:00,
2013-05-06 10:50:00,67.2,48.5,29.86,West,260,4.0,5.0,51,0.00,,---,0.00,VWS V14.01,2013-05-06 17:50:00,
2013-05-06 10:55:00,67.0,48.8,29.85,WSW,258,3.0,6.0,52,0.00,,---,0.00,VWS V14.01,2013-05-06 17:55:00,
2013-05-06 11:00:00,67.9,49.1,29.85,West,271,3.0,6.0,51,0.00,,---,0.00,VWS V14.01,2013-05-06 18:00:00,
2013-05-06 11:05:00,68.2,48.9,29.85,West,280,2.0,5.0,50,0.00,,---,0.00,VWS V14.01,2013-05-06 18:05:00,
2013-05-06 11:10:00,68.0,49.2,29.85,West,279,1.0,5.0,51,0.00,,---,0.00,VWS V14.01,2013-05-06 18:10:00,
2013-05-06 11:15:00,67.9,48.1,29.85,WNW,289,5.0,6.0,49,0.00,,---,0.00,VWS V14.01,2013-05-06 18:15:00,
2013-05-06 11:20:00,67.4,48.7,29.85,West,281,3.0,6.0,51,0.00,,---,0.00,VWS V14.01,2013-05-06 18:20:00,
2013-05-06 11:25:00,67.5,48.8,29.85,West,281,1.0,6.0,51,0.00,,---,0.00,VWS V14.01,2013-05-06 18:25:00,
2013-05-06 11:30:00,67.9,49.1,29.85,West,281,1.0,6.0,51,0.00,,---,0.00,VWS V14.01,2013-05-06 18:30:00,
2013-05-06 11:35:00,68.3,49.5,29.85,West,281,1.0,5.0,51,0.00,,---,0.00,VWS V14.01,2013-05-06 18:35:00,
2013-05-06 11:40:00,69.2,49.8,29.84,West,260,2.0,6.0,50,0.00,,---,0.00,VWS V14.01,2013-05-06 18:40:00,
2013-05-06 11:45:00,69.5,49.5,29.84,WSW,257,4.0,6.0,49,0.00,,---,0.00,VWS V14.01,2013-05-06 18:45:00,
2013-05-06 11:50:00,69.4,48.9,29.84,WSW,258,3.0,6.0,48,0.00,,---,0.00,VWS V14.01,2013-05-06 18:50:00,
2013-05-06 11:55:00,69.2,48.7,29.84,WSW,253,3.0,6.0,48,0.00,,---,0.00,VWS V14.01,2013-05-06 18:55:00,
2013-05-06 12:00:00,70.1,49.0,29.84,WSW,258,3.0,6.0,47,0.00,,---,0.00,VWS V14.01,2013-05-06 19:00:00,
2013-05-06 12:05:00,71.3,49.5,29.84,West,272,4.0,4.0,46,0.00,,---,0.00,VWS V14.01,2013-05-06 19:05:00,
2013-05-06 12:10:00,71.0,49.2,29.84,WSW,248,5.0,7.0,46,0.00,,---,0.00,VWS V14.01,2013-05-06 19:10:00,
2013-05-06 12:15:00,70.9,48.5,29.84,West,271,5.0,7.0,45,0.00,,---,0.00,VWS V14.01,2013-05-06 19:15:00,
2013-05-06 12:20:00,70.2,48.5,29.84,West,261,6.0,7.0,46,0.00,,---,0.00,VWS V14.01,2013-05-06 19:20:00,
2013-05-06 12:25:00,69.9,48.8,29.84,West,277,4.0,7.0,47,0.00,,---,0.00,VWS V14.01,2013-05-06 19:25:00,
2013-05-06 12:30:00,69.7,48.0,29.84,West,266,6.0,10.0,46,0.00,,---,0.00,VWS V14.01,2013-05-06 19:30:00,
2013-05-06 12:35:00,69.5,47.2,29.84,West,265,5.0,8.0,45,0.00,,---,0.00,VWS V14.01,2013-05-06 19:35:00,
2013-05-06 12:40:00,69.9,47.0,29.83,WNW,286,4.0,8.0,44,0.00,,---,0.00,VWS V14.01,2013-05-06 19:40:00,
2013-05-06 12:45:00,70.3,46.8,29.83,West,281,3.0,8.0,43,0.00,,---,0.00,VWS V14.01,2013-05-06 19:45:00,
2013-05-06 12:50:00,70.5,46.3,29.83,West,265,5.0,8.0,42,0.00,,---,0.00,VWS V14.01,2013-05-06 19:50:00,
2013-05-06 12:54:00,70.4,46.9,29.83,WNW,298,4.0,8.0,43,0.00,,---,0.00,VWS V14.01,2013-05-06 19:54:00,
2013-05-06 12:59:00,70.8,46.6,29.83,NW,319,2.0,8.0,42,0.00,,---,0.00,VWS V14.01,2013-05-06 19:59:00,
2013-05-06 13:00:00,71.1,46.9,29.83,West,261,7.0,8.0,42,0.00,,---,0.00,VWS V14.01,2013-05-06 20:00:00,
2013-05-06 13:04:00,71.3,46.4,29.83,West,271,4.0,8.0,41,0.00,,---,0.00,VWS V14.01,2013-05-06 20:04:00,
2013-05-06 13:09:00,71.4,45.8,29.83,West,280,7.0,9.0,40,0.00,,---,0.00,VWS V14.01,2013-05-06 20:09:00,
2013-05-06 13:14:00,71.2,45.7,29.83,West,279,2.0,9.0,40,0.00,,---,0.00,VWS V14.01,2013-05-06 20:14:00,
2013-05-06 13:15:00,71.2,45.7,29.83,West,267,2.0,9.0,40,0.00,,---,0.00,VWS V14.01,2013-05-06 20:15:00,
2013-05-06 13:19:00,71.5,45.9,29.83,West,273,3.0,4.0,40,0.00,,---,0.00,VWS V14.01,2013-05-06 20:19:00,
2013-05-06 13:24:00,72.1,46.5,29.83,WNW,290,1.0,4.0,40,0.00,,---,0.00,VWS V14.01,2013-05-06 20:24:00,
2013-05-06 13:29:00,72.4,47.4,29.83,South,172,2.0,6.0,41,0.00,,---,0.00,VWS V14.01,2013-05-06 20:29:00,
2013-05-06 13:30:00,72.6,46.9,29.83,WSW,239,1.0,6.0,40,0.00,,---,0.00,VWS V14.01,2013-05-06 20:30:00,
2013-05-06 13:34:00,73.0,47.9,29.83,WSW,242,1.0,4.0,41,0.00,,---,0.00,VWS V14.01,2013-05-06 20:34:00,
2013-05-06 13:39:00,73.8,48.0,29.82,West,262,0.0,6.0,40,0.00,,---,0.00,VWS V14.01,2013-05-06 20:39:00,
2013-05-06 13:44:00,74.4,48.5,29.82,West,263,3.0,6.0,40,0.00,,---,0.00,VWS V14.01,2013-05-06 20:44:00,
2013-05-06 13:45:00,74.6,48.0,29.82,West,263,3.0,6.0,39,0.00,,---,0.00,VWS V14.01,2013-05-06 20:45:00,
2013-05-06 13:49:00,74.8,48.2,29.82,West,264,2.0,4.0,39,0.00,,---,0.00,VWS V14.01,2013-05-06 20:49:00,
2013-05-06 13:54:00,75.3,48.7,29.82,West,275,4.0,6.0,39,0.00,,---,0.00,VWS V14.01,2013-05-06 20:54:00,
2013-05-06 13:59:00,75.1,47.8,29.82,West,265,5.0,6.0,38,0.00,,---,0.00,VWS V14.01,2013-05-06 20:59:00,
2013-05-06 14:00:00,75.1,47.1,29.82,West,265,5.0,6.0,37,0.00,,---,0.00,VWS V14.01,2013-05-06 21:00:00,
2013-05-06 14:04:00,75.1,47.1,29.82,West,269,6.0,6.0,37,0.00,,---,0.00,VWS V14.01,2013-05-06 21:04:00,
2013-05-06 14:09:00,75.1,47.1,29.82,West,269,4.0,6.0,37,0.00,,---,0.00,VWS V14.01,2013-05-06 21:09:00,
2013-05-06 14:14:00,75.6,47.5,29.82,West,267,2.0,6.0,37,0.00,,---,0.00,VWS V14.01,2013-05-06 21:14:00,
2013-05-06 14:15:00,76.0,47.9,29.82,West,267,2.0,6.0,37,0.00,,---,0.00,VWS V14.01,2013-05-06 21:15:00,
2013-05-06 14:19:00,76.6,47.7,29.82,West,267,1.0,4.0,36,0.00,,---,0.00,VWS V14.01,2013-05-06 21:19:00,
2013-05-06 14:24:00,77.0,48.0,29.82,West,267,3.0,5.0,36,0.00,,---,0.00,VWS V14.01,2013-05-06 21:24:00,
2013-05-06 14:29:00,77.3,48.3,29.81,West,266,2.0,6.0,36,0.00,,---,0.00,VWS V14.01,2013-05-06 21:29:00,
2013-05-06 14:30:00,77.7,48.7,29.81,West,267,4.0,6.0,36,0.00,,---,0.00,VWS V14.01,2013-05-06 21:30:00,
2013-05-06 14:34:00,78.1,47.5,29.81,West,271,2.0,6.0,34,0.00,,---,0.00,VWS V14.01,2013-05-06 21:34:00,
2013-05-06 14:39:00,78.4,49.3,29.81,NW,313,5.0,7.0,36,0.00,,---,0.00,VWS V14.01,2013-05-06 21:39:00,
2013-05-06 14:44:00,78.5,47.8,29.81,WNW,290,5.0,8.0,34,0.00,,---,0.00,VWS V14.01,2013-05-06 21:44:00,
2013-05-06 14:45:00,78.7,48.8,29.81,WNW,293,5.0,8.0,35,0.00,,---,0.00,VWS V14.01,2013-05-06 21:45:00,
2013-05-06 14:49:00,79.1,49.1,29.81,West,259,7.0,7.0,35,0.00,,---,0.00,VWS V14.01,2013-05-06 21:49:00,
2013-05-06 14:54:00,80.3,49.4,29.81,North,355,1.0,7.0,34,0.00,,---,0.00,VWS V14.01,2013-05-06 21:54:00,
2013-05-06 14:59:00,81.3,46.0,29.81,NW,323,5.0,9.0,29,0.00,,---,0.00,VWS V14.01,2013-05-06 21:59:00,
2013-05-06 15:00:00,81.2,46.0,29.81,NW,313,4.0,9.0,29,0.00,,---,0.00,VWS V14.01,2013-05-06 22:00:00,
2013-05-06 15:04:00,81.4,46.1,29.80,NNW,331,2.0,10.0,29,0.00,,---,0.00,VWS V14.01,2013-05-06 22:04:00,
2013-05-06 15:09:00,80.4,44.3,29.80,NW,317,8.0,12.0,28,0.00,,---,0.00,VWS V14.01,2013-05-06 22:09:00,
2013-05-06 15:14:00,80.7,44.6,29.80,NNW,329,5.0,12.0,28,0.00,,---,0.00,VWS V14.01,2013-05-06 22:14:00,
2013-05-06 15:15:00,80.6,45.4,29.80,North,355,8.0,12.0,29,0.00,,---,0.00,VWS V14.01,2013-05-06 22:15:00,
2013-05-06 15:19:00,80.8,45.6,29.80,NNW,334,7.0,8.0,29,0.00,,---,0.00,VWS V14.01,2013-05-06 22:19:00,
2013-05-06 15:24:00,81.0,45.8,29.80,NW,313,8.0,11.0,29,0.00,,---,0.00,VWS V14.01,2013-05-06 22:24:00,
2013-05-06 15:29:00,80.5,46.2,29.80,NW,317,4.0,12.0,30,0.00,,---,0.00,VWS V14.01,2013-05-06 22:29:00,
2013-05-06 15:30:00,80.9,45.7,29.80,NNW,340,9.0,12.0,29,0.00,,---,0.00,VWS V14.01,2013-05-06 22:30:00,
2013-05-06 15:34:00,80.6,45.4,29.80,NNW,328,9.0,14.0,29,0.00,,---,0.00,VWS V14.01,2013-05-06 22:34:00,
2013-05-06 15:39:00,80.6,45.4,29.79,NNW,345,8.0,14.0,29,0.00,,---,0.00,VWS V14.01,2013-05-06 22:39:00,
2013-05-06 15:44:00,80.5,45.3,29.79,NNW,336,5.0,14.0,29,0.00,,---,0.00,VWS V14.01,2013-05-06 22:44:00,
2013-05-06 15:45:00,80.8,45.6,29.79,NW,321,4.0,14.0,29,0.00,,---,0.00,VWS V14.01,2013-05-06 22:45:00,
2013-05-06 15:49:00,81.2,46.0,29.79,NNW,338,10.0,13.0,29,0.00,,---,0.00,VWS V14.01,2013-05-06 22:49:00,
2013-05-06 15:54:00,80.9,45.7,29.79,NNW,329,9.0,14.0,29,0.00,,---,0.00,VWS V14.01,2013-05-06 22:54:00,
2013-05-06 15:59:00,81.1,45.9,29.78,NNW,340,8.0,14.0,29,0.00,,---,0.00,VWS V14.01,2013-05-06 22:59:00,
2013-05-06 16:00:00,81.2,46.8,29.79,WNW,286,5.0,14.0,30,0.00,,---,0.00,VWS V14.01,2013-05-06 23:00:00,
2013-05-06 16:04:00,82.0,46.6,29.78,North,351,4.0,9.0,29,0.00,,---,0.00,VWS V14.01,2013-05-06 23:04:00,
2013-05-06 16:09:00,81.9,46.6,29.78,NNW,338,5.0,15.0,29,0.00,,---,0.00,VWS V14.01,2013-05-06 23:09:00,
2013-05-06 16:14:00,81.9,46.6,29.78,NW,316,0.0,15.0,29,0.00,,---,0.00,VWS V14.01,2013-05-06 23:14:00,
2013-05-06 16:15:00,82.3,46.9,29.78,NNW,344,6.0,15.0,29,0.00,,---,0.00,VWS V14.01,2013-05-06 23:15:00,
2013-05-06 16:19:00,82.5,46.1,29.78,NNW,340,7.0,12.0,28,0.00,,---,0.00,VWS V14.01,2013-05-06 23:19:00,
2013-05-06 16:24:00,82.7,45.3,29.78,NNW,336,11.0,14.0,27,0.00,,---,0.00,VWS V14.01,2013-05-06 23:24:00,
2013-05-06 16:29:00,82.6,48.1,29.78,South,188,4.0,14.0,30,0.00,,---,0.00,VWS V14.01,2013-05-06 23:29:00,
2013-05-06 16:30:00,83.0,46.6,29.78,NNW,338,7.0,14.0,28,0.00,,---,0.00,VWS V14.01,2013-05-06 23:30:00,
2013-05-06 16:34:00,82.1,45.8,29.78,NNW,343,12.0,14.0,28,0.00,,---,0.00,VWS V14.01,2013-05-06 23:34:00,
2013-05-06 16:39:00,81.7,45.5,29.78,North,355,6.0,14.0,28,0.00,,---,0.00,VWS V14.01,2013-05-06 23:39:00,
2013-05-06 16:44:00,81.6,47.2,29.78,NNE,12,3.0,14.0,30,0.00,,---,0.00,VWS V14.01,2013-05-06 23:44:00,
2013-05-06 16:45:00,82.0,47.5,29.78,West,273,3.0,14.0,30,0.00,,---,0.00,VWS V14.01,2013-05-06 23:45:00,
2013-05-06 16:49:00,82.3,47.8,29.78,NNW,327,4.0,13.0,30,0.00,,---,0.00,VWS V14.01,2013-05-06 23:49:00,
2013-05-06 16:54:00,82.7,48.1,29.78,NNE,24,8.0,13.0,30,0.00,,---,0.00,VWS V14.01,2013-05-06 23:54:00,
2013-05-06 16:59:00,82.1,48.5,29.78,NW,315,7.0,13.0,31,0.00,,---,0.00,VWS V14.01,2013-05-06 23:59:00,
2013-05-06 17:00:00,82.2,48.6,29.78,North,360,8.0,13.0,31,0.00,,---,0.00,VWS V14.01,2013-05-07 00:00:00,
2013-05-06 17:04:00,82.2,47.7,29.78,NW,319,1.0,10.0,30,0.00,,---,0.00,VWS V14.01,2013-05-07 00:04:00,
2013-05-06 17:09:00,82.4,48.8,29.78,NNW,340,13.0,13.0,31,0.00,,---,0.00,VWS V14.01,2013-05-07 00:09:00,
2013-05-06 17:14:00,81.8,47.4,29.77,NNW,342,13.0,14.0,30,0.00,,---,0.00,VWS V14.01,2013-05-07 00:14:00,
2013-05-06 17:15:00,81.6,46.3,29.77,NNW,341,12.0,17.0,29,0.00,,---,0.00,VWS V14.01,2013-05-07 00:15:00,
2013-05-06 17:19:00,81.3,46.9,29.78,NW,323,8.0,15.0,30,0.00,,---,0.00,VWS V14.01,2013-05-07 00:19:00,
2013-05-06 17:24:00,81.2,46.0,29.77,WNW,301,0.0,17.0,29,0.00,,---,0.00,VWS V14.01,2013-05-07 00:24:00,
2013-05-06 17:29:00,81.5,45.3,29.77,WNW,298,6.0,17.0,28,0.00,,---,0.00,VWS V14.01,2013-05-07 00:29:00,
2013-05-06 17:30:00,81.4,44.2,29.77,NNE,20,11.0,17.0,27,0.00,,---,0.00,VWS V14.01,2013-05-07 00:30:00,
2013-05-06 17:34:00,81.4,45.2,29.77,NW,307,11.0,12.0,28,0.00,,---,0.00,VWS V14.01,2013-05-07 00:34:00,
2013-05-06 17:39:00,81.0,43.9,29.77,North,355,13.0,18.0,27,0.00,,---,0.00,VWS V14.01,2013-05-07 00:39:00,
2013-05-06 17:44:00,80.9,43.8,29.77,NNE,21,8.0,18.0,27,0.00,,---,0.00,VWS V14.01,2013-05-07 00:44:00,
2013-05-06 17:45:00,80.7,43.7,29.77,NW,309,10.0,18.0,27,0.00,,---,0.00,VWS V14.01,2013-05-07 00:45:00,
2013-05-06 17:49:00,80.6,44.5,29.77,North,355,9.0,17.0,28,0.00,,---,0.00,VWS V14.01,2013-05-07 00:49:00,
2013-05-06 17:54:00,80.2,43.2,29.77,NW,326,12.0,20.0,27,0.00,,---,0.00,VWS V14.01,2013-05-07 00:54:00,
2013-05-06 17:59:00,80.2,44.2,29.77,North,355,4.0,20.0,28,0.00,,---,0.00,VWS V14.01,2013-05-07 00:59:00,
2013-05-06 18:00:00,80.1,44.1,29.77,NNW,338,8.0,20.0,28,0.00,,---,0.00,VWS V14.01,2013-05-07 01:00:00,
2013-05-06 18:04:00,79.9,43.9,29.77,WNW,286,2.0,17.0,28,0.00,,---,0.00,VWS V14.01,2013-05-07 01:04:00,
2013-05-06 18:09:00,80.1,44.1,29.77,NNW,331,12.0,17.0,28,0.00,,---,0.00,VWS V14.01,2013-05-07 01:09:00,
2013-05-06 18:14:00,79.6,44.6,29.77,NNW,331,9.0,17.0,29,0.00,,---,0.00,VWS V14.01,2013-05-07 01:14:00,
2013-05-06 18:15:00,79.4,45.3,29.77,West,273,4.0,17.0,30,0.00,,---,0.00,VWS V14.01,2013-05-07 01:15:00,
2013-05-06 18:19:00,79.6,45.5,29.77,North,360,8.0,13.0,30,0.00,,---,0.00,VWS V14.01,2013-05-07 01:19:00,
2013-05-06 18:24:00,79.6,45.5,29.77,North,10,9.0,15.0,30,0.00,,---,0.00,VWS V14.01,2013-05-07 01:24:00,
2013-05-06 18:29:00,79.4,45.3,29.76,North,360,2.0,15.0,30,0.00,,---,0.00,VWS V14.01,2013-05-07 01:29:00,
2013-05-06 18:30:00,79.5,45.4,29.77,NNE,30,9.0,15.0,30,0.00,,---,0.00,VWS V14.01,2013-05-07 01:30:00,
2013-05-06 18:34:00,79.6,45.5,29.77,SE,136,5.0,9.0,30,0.00,,---,0.00,VWS V14.01,2013-05-07 01:34:00,
2013-05-06 18:39:00,79.5,46.2,29.76,SW,215,5.0,12.0,31,0.00,,---,0.00,VWS V14.01,2013-05-07 01:39:00,
2013-05-06 18:44:00,79.1,45.9,29.76,NW,304,0.0,12.0,31,0.00,,---,0.00,VWS V14.01,2013-05-07 01:44:00,
2013-05-06 18:45:00,79.0,45.8,29.76,SW,236,7.0,12.0,31,0.00,,---,0.00,VWS V14.01,2013-05-07 01:45:00,
2013-05-06 18:49:00,78.7,46.4,29.76,NNE,17,6.0,11.0,32,0.00,,---,0.00,VWS V14.01,2013-05-07 01:49:00,
2013-05-06 18:54:00,78.7,46.4,29.77,SW,231,5.0,11.0,32,0.00,,---,0.00,VWS V14.01,2013-05-07 01:54:00,
2013-05-06 18:59:00,78.6,46.3,29.77,WNW,287,4.0,12.0,32,0.00,,---,0.00,VWS V14.01,2013-05-07 01:59:00,
2013-05-06 19:00:00,78.7,46.4,29.76,South,175,5.0,12.0,32,0.00,,---,0.00,VWS V14.01,2013-05-07 02:00:00,
2013-05-06 19:04:00,78.7,46.4,29.76,WNW,290,5.0,11.0,32,0.00,,---,0.00,VWS V14.01,2013-05-07 02:04:00,
2013-05-06 19:09:00,78.5,47.0,29.76,West,261,2.0,11.0,33,0.00,,---,0.00,VWS V14.01,2013-05-07 02:09:00,
2013-05-06 19:14:00,77.5,47.0,29.77,WSW,240,3.0,12.0,34,0.00,,---,0.00,VWS V14.01,2013-05-07 02:14:00,
2013-05-06 19:15:00,77.5,47.0,29.77,NE,37,1.0,12.0,34,0.00,,---,0.00,VWS V14.01,2013-05-07 02:15:00,
2013-05-06 19:19:00,77.3,47.5,29.77,North,355,3.0,8.0,35,0.00,,---,0.00,VWS V14.01,2013-05-07 02:19:00,
2013-05-06 19:24:00,77.2,47.5,29.77,North,5,3.0,9.0,35,0.00,,---,0.00,VWS V14.01,2013-05-07 02:24:00,
2013-05-06 19:29:00,76.8,47.1,29.77,West,274,5.0,10.0,35,0.00,,---,0.00,VWS V14.01,2013-05-07 02:29:00,
2013-05-06 19:30:00,76.5,47.6,29.77,NNW,347,1.0,10.0,36,0.00,,---,0.00,VWS V14.01,2013-05-07 02:30:00,
2013-05-06 19:34:00,76.2,47.3,29.77,SSE,164,6.0,9.0,36,0.00,,---,0.00,VWS V14.01,2013-05-07 02:34:00,
2013-05-06 19:39:00,75.7,47.6,29.77,NNE,13,3.0,10.0,37,0.00,,---,0.00,VWS V14.01,2013-05-07 02:39:00,
2013-05-06 19:44:00,75.4,47.3,29.77,NW,304,1.0,11.0,37,0.00,,---,0.00,VWS V14.01,2013-05-07 02:44:00,
2013-05-06 19:45:00,75.2,47.2,29.77,WSW,242,3.0,11.0,37,0.00,,---,0.00,VWS V14.01,2013-05-07 02:45:00,
2013-05-06 19:49:00,75.1,48.5,29.77,West,279,5.0,11.0,39,0.00,,---,0.00,VWS V14.01,2013-05-07 02:49:00,
2013-05-06 19:54:00,75.1,47.8,29.77,ENE,57,2.0,11.0,38,0.00,,---,0.00,VWS V14.01,2013-05-07 02:54:00,
2013-05-06 19:59:00,75.2,47.9,29.77,NE,44,1.0,11.0,38,0.00,,---,0.00,VWS V14.01,2013-05-07 02:59:00,
2013-05-06 20:00:00,75.2,47.9,29.77,WSW,245,1.0,11.0,38,0.00,,---,0.00,VWS V14.01,2013-05-07 03:00:00,
2013-05-06 20:04:00,75.2,47.9,29.77,NE,36,6.0,7.0,38,0.00,,---,0.00,VWS V14.01,2013-05-07 03:04:00,
2013-05-06 20:09:00,75.1,49.2,29.77,SSW,213,2.0,7.0,40,0.00,,---,0.00,VWS V14.01,2013-05-07 03:09:00,
2013-05-06 20:14:00,75.0,48.4,29.77,ENE,59,3.0,7.0,39,0.00,,---,0.00,VWS V14.01,2013-05-07 03:14:00,
2013-05-06 20:15:00,74.9,48.3,29.77,NNE,26,3.0,7.0,39,0.00,,---,0.00,VWS V14.01,2013-05-07 03:15:00,
2013-05-06 20:19:00,74.8,48.2,29.77,NW,304,4.0,5.0,39,0.00,,---,0.00,VWS V14.01,2013-05-07 03:19:00,
2013-05-06 20:24:00,74.6,49.4,29.77,SSW,197,3.0,8.0,41,0.00,,---,0.00,VWS V14.01,2013-05-07 03:24:00,
2013-05-06 20:29:00,74.4,48.5,29.77,NE,53,3.0,8.0,40,0.00,,---,0.00,VWS V14.01,2013-05-07 03:29:00,
2013-05-06 20:30:00,74.2,50.3,29.77,NNE,12,1.0,8.0,43,0.00,,---,0.00,VWS V14.01,2013-05-07 03:30:00,
2013-05-06 20:34:00,74.2,48.3,29.78,NNE,19,3.0,10.0,40,0.00,,---,0.00,VWS V14.01,2013-05-07 03:34:00,
2013-05-06 20:39:00,74.0,49.5,29.78,NE,43,2.0,10.0,42,0.00,,---,0.00,VWS V14.01,2013-05-07 03:39:00,
2013-05-06 20:44:00,73.8,50.5,29.78,NE,36,0.0,10.0,44,0.00,,---,0.00,VWS V14.01,2013-05-07 03:44:00,
2013-05-06 20:45:00,73.7,49.2,29.78,NE,36,1.0,10.0,42,0.00,,---,0.00,VWS V14.01,2013-05-07 03:45:00,
2013-05-06 20:49:00,73.6,48.5,29.78,NE,36,2.0,3.0,41,0.00,,---,0.00,VWS V14.01,2013-05-07 03:49:00,
2013-05-06 20:54:00,73.3,48.8,29.78,NNW,333,0.0,7.0,42,0.00,,---,0.00,VWS V14.01,2013-05-07 03:54:00,
2013-05-06 20:59:00,72.8,49.6,29.78,North,360,1.0,7.0,44,0.00,,---,0.00,VWS V14.01,2013-05-07 03:59:00,
2013-05-06 21:00:00,72.4,50.5,29.79,WSW,246,4.0,7.0,46,0.00,,---,0.00,VWS V14.01,2013-05-07 04:00:00,
2013-05-06 21:01:00,72.6,50.1,29.78,ENE,61,2.0,7.0,45,0.00,,---,0.00,VWS V14.01,2013-05-07 04:01:00,
2013-05-06 21:06:00,70.3,50.3,29.79,South,180,4.0,7.0,49,0.00,,---,0.00,VWS V14.01,2013-05-07 04:06:00,
2013-05-06 21:11:00,68.6,49.8,29.79,WSW,241,3.0,7.0,51,0.00,,---,0.00,VWS V14.01,2013-05-07 04:11:00,
2013-05-06 21:15:00,67.6,50.4,29.79,WSW,256,1.0,7.0,54,0.00,,---,0.00,VWS V14.01,2013-05-07 04:15:00,
2013-05-06 21:16:00,67.6,50.4,29.79,WSW,256,1.0,7.0,54,0.00,,---,0.00,VWS V14.01,2013-05-07 04:16:00,
2013-05-06 21:21:00,67.2,50.0,29.79,WSW,258,1.0,4.0,54,0.00,,---,0.00,VWS V14.01,2013-05-07 04:21:00,
2013-05-06 21:26:00,67.2,50.0,29.80,WSW,257,0.0,4.0,54,0.00,,---,0.00,VWS V14.01,2013-05-07 04:26:00,
2013-05-06 21:30:00,67.3,50.1,29.80,WSW,254,2.0,4.0,54,0.00,,---,0.00,VWS V14.01,2013-05-07 04:30:00,
2013-05-06 21:31:00,67.3,50.1,29.80,WSW,254,2.0,4.0,54,0.00,,---,0.00,VWS V14.01,2013-05-07 04:31:00,
2013-05-06 21:36:00,67.4,49.2,29.80,WSW,254,1.0,2.0,52,0.00,,---,0.00,VWS V14.01,2013-05-07 04:36:00,
2013-05-06 21:41:00,67.6,49.4,29.80,WSW,254,0.0,2.0,52,0.00,,---,0.00,VWS V14.01,2013-05-07 04:41:00,
2013-05-06 21:45:00,67.9,49.1,29.80,WSW,254,0.0,2.0,51,0.00,,---,0.00,VWS V14.01,2013-05-07 04:45:00,
2013-05-06 21:46:00,67.9,49.1,29.80,WSW,254,0.0,2.0,51,0.00,,---,0.00,VWS V14.01,2013-05-07 04:46:00,
2013-05-06 21:51:00,68.2,50.4,29.80,WSW,254,0.0,1.0,53,0.00,,---,0.00,VWS V14.01,2013-05-07 04:51:00,
2013-05-06 21:56:00,68.5,50.2,29.80,WSW,254,4.0,4.0,52,0.00,,---,0.00,VWS V14.01,2013-05-07 04:56:00,
2013-05-06 22:00:00,69.0,49.6,29.80,WSW,254,0.0,4.0,50,0.00,,---,0.00,VWS V14.01,2013-05-07 05:00:00,
2013-05-06 22:01:00,69.0,49.6,29.80,WSW,254,0.0,4.0,50,0.00,,---,0.00,VWS V14.01,2013-05-07 05:01:00,
2013-05-06 22:06:00,69.2,50.3,29.81,WSW,254,0.0,1.0,51,0.00,,---,0.00,VWS V14.01,2013-05-07 05:06:00,
2013-05-06 22:11:00,69.0,51.2,29.81,WSW,254,0.0,1.0,53,0.00,,---,0.00,VWS V14.01,2013-05-07 05:11:00,
2013-05-06 22:15:00,68.6,51.8,29.81,WSW,254,0.0,2.0,55,0.00,,---,0.00,VWS V14.01,2013-05-07 05:15:00,
2013-05-06 22:16:00,68.6,51.8,29.81,WSW,254,0.0,2.0,55,0.00,,---,0.00,VWS V14.01,2013-05-07 05:16:00,
2013-05-06 22:21:00,68.1,50.3,29.81,West,269,0.0,3.0,53,0.00,,---,0.00,VWS V14.01,2013-05-07 05:21:00,
2013-05-06 22:26:00,67.7,50.5,29.81,West,272,2.0,4.0,54,0.00,,---,0.00,VWS V14.01,2013-05-07 05:26:00,
2013-05-06 22:30:00,67.2,50.0,29.81,North,360,1.0,4.0,54,0.00,,---,0.00,VWS V14.01,2013-05-07 05:30:00,
2013-05-06 22:31:00,67.2,50.0,29.81,North,360,1.0,4.0,54,0.00,,---,0.00,VWS V14.01,2013-05-07 05:31:00,
2013-05-06 22:36:00,66.9,49.7,29.81,North,355,1.0,3.0,54,0.00,,---,0.00,VWS V14.01,2013-05-07 05:36:00,
2013-05-06 22:41:00,66.9,50.7,29.81,North,360,1.0,3.0,56,0.00,,---,0.00,VWS V14.01,2013-05-07 05:41:00,
2013-05-06 22:45:00,67.0,49.8,29.81,North,360,1.0,3.0,54,0.00,,---,0.00,VWS V14.01,2013-05-07 05:45:00,
2013-05-06 22:46:00,67.0,49.8,29.81,North,360,1.0,3.0,54,0.00,,---,0.00,VWS V14.01,2013-05-07 05:46:00,
2013-05-06 22:51:00,66.5,50.3,29.82,North,355,2.0,3.0,56,0.00,,---,0.00,VWS V14.01,2013-05-07 05:51:00,
2013-05-06 22:56:00,66.0,50.3,29.82,North,355,2.0,4.0,57,0.00,,---,0.00,VWS V14.01,2013-05-07 05:56:00,
2013-05-06 23:00:00,65.6,50.4,29.82,North,355,1.0,4.0,58,0.00,,---,0.00,VWS V14.01,2013-05-07 06:00:00,
2013-05-06 23:01:00,65.6,50.4,29.82,North,355,1.0,4.0,58,0.00,,---,0.00,VWS V14.01,2013-05-07 06:01:00,
2013-05-06 23:06:00,65.1,50.4,29.82,North,355,3.0,3.0,59,0.00,,---,0.00,VWS V14.01,2013-05-07 06:06:00,
2013-05-06 23:11:00,63.8,50.5,29.82,West,267,3.0,7.0,62,0.00,,---,0.00,VWS V14.01,2013-05-07 06:11:00,
2013-05-06 23:15:00,62.6,50.3,29.82,West,269,7.0,9.0,64,0.00,,---,0.00,VWS V14.01,2013-05-07 06:15:00,
2013-05-06 23:16:00,62.6,50.3,29.82,West,270,8.0,9.0,64,0.00,,---,0.00,VWS V14.01,2013-05-07 06:16:00,
2013-05-06 23:21:00,62.0,50.5,29.82,West,280,3.0,9.0,66,0.00,,---,0.00,VWS V14.01,2013-05-07 06:21:00,
2013-05-06 23:26:00,61.5,50.5,29.82,West,269,3.0,9.0,67,0.00,,---,0.00,VWS V14.01,2013-05-07 06:26:00,
2013-05-06 23:30:00,61.2,50.6,29.82,West,263,2.0,9.0,68,0.00,,---,0.00,VWS V14.01,2013-05-07 06:30:00,
2013-05-06 23:31:00,61.2,50.6,29.82,West,263,4.0,9.0,68,0.00,,---,0.00,VWS V14.01,2013-05-07 06:31:00,
2013-05-06 23:36:00,60.9,50.3,29.83,West,269,3.0,7.0,68,0.00,,---,0.00,VWS V14.01,2013-05-07 06:36:00,
2013-05-06 23:41:00,60.8,50.6,29.83,West,274,1.0,7.0,69,0.00,,---,0.00,VWS V14.01,2013-05-07 06:41:00,
2013-05-06 23:45:00,60.9,50.7,29.83,West,267,8.0,8.0,69,0.00,,---,0.00,VWS V14.01,2013-05-07 06:45:00,
2013-05-06 23:46:00,60.8,50.6,29.83,West,259,7.0,8.0,69,0.00,,---,0.00,VWS V14.01,2013-05-07 06:46:00,
2013-05-06 23:51:00,61.0,50.4,29.83,West,259,6.0,8.0,68,0.00,,---,0.00,VWS V14.01,2013-05-07 06:51:00,
2013-05-06 23:56:00,61.1,50.9,29.83,West,277,5.0,8.0,69,0.00,,---,0.00,VWS V14.01,2013-05-07 06:56:00,